LKBO weather

Bohuňovice Airport
Bohuňovice, Olomouc Region, Czech Republic

Public forecast

Using degrees Celsius for public forecast. Weather courtesy of forecast.io.

Closest aviation weather report (METAR) to Bohuňovice Airport

Report is more than 6 hours old.

Closest report is Přerov Air Base, 15.3 nm (28.3 km) SSE. Retrieved 2013/10/01 00:00 UTC (6 years ago):

LKPO 010000Z 05005KT CAVOK 04/01 Q1013

Closest aviation forecast (TAF) to Bohuňovice Airport

Forecast is more than 12 hours old.

Closest forecast is Přerov Air Base, 15.3 nm (28.3 km) SSE. Retrieved 2013/09/28 06:17 UTC (6 years ago):

TAF COR LKPO 280500Z 2806/2906 VRB02KT 2000 BR SCT005 TEMPO 2806/2809 0400 FG VV002 BECMG 2809/2811 CAVOK PROB40 TEMPO 2809/2815 06006KT 9999 SCT030 TEMPO 2902/2906 3000 MIFG BR SCT005 BECMG 2904/2906 06008KT